Time;durP1;ratioP1;P1;durP2;ratioP2;P2;SDS_P1;SDS_P2;PMS_P1;PMS_P2;Temp;Humidity;BMP_temperature;BMP_pressure;BME280_temperature;BME280_humidity;BME280_pressure;Samples;Min_cycle;Max_cycle;Signal;HPM_P1;HPM_P2
2021/12/16 00:07:58;;;;;;;0.50;0.50;;;;;;;;;;4972854;28;20552;-66
2021/12/16 00:10:35;;;;;;;0.50;0.50;;;;;;;;;;4972090;28;20205;-66
2021/12/16 00:32:06;;;;;;;0.50;0.50;;;;;;;;;;4975535;28;20739;-66
2021/12/16 00:34:33;;;;;;;0.50;0.50;;;;;;;;;;4976278;28;20182;-65
2021/12/16 00:37:00;;;;;;;0.50;0.50;;;;;;;;;;4976192;28;20181;-66
2021/12/16 00:39:28;;;;;;;0.50;0.50;;;;;;;;;;4975954;28;20190;-66
2021/12/16 00:42:02;;;;;;;0.40;0.40;;;;;;;;;;4975470;28;20209;-64
2021/12/16 00:49:41;;;;;;;0.60;0.60;;;;;;;;;;4976165;28;20181;-65
2021/12/16 00:55:04;;;;;;;0.50;0.50;;;;;;;;;;4975914;28;20579;-64
2021/12/16 00:57:30;;;;;;;0.50;0.50;;;;;;;;;;4975872;28;20260;-65
2021/12/16 00:59:59;;;;;;;0.40;0.40;;;;;;;;;;4975601;28;20262;-65
2021/12/16 01:35:45;;;;;;;0.50;0.50;;;;;;;;;;4975317;28;20194;-65
2021/12/16 01:46:35;;;;;;;0.50;0.50;;;;;;;;;;4974900;28;20235;-65
2021/12/16 01:52:30;;;;;;;0.50;0.50;;;;;;;;;;4968213;28;20183;-64
2021/12/16 01:57:17;;;;;;;0.50;0.50;;;;;;;;;;4955768;29;20197;-65
2021/12/16 01:59:46;;;;;;;0.50;0.50;;;;;;;;;;4955491;28;20635;-65
2021/12/16 02:10:10;;;;;;;0.50;0.50;;;;;;;;;;4954754;28;20264;-63
2021/12/16 02:29:10;;;;;;;0.60;0.60;;;;;;;;;;4955144;29;20274;-64
2021/12/16 02:31:51;;;;;;;0.45;0.45;;;;;;;;;;4953995;28;20248;-65
2021/12/16 02:36:49;;;;;;;0.50;0.50;;;;;;;;;;4954902;28;20197;-66
2021/12/16 02:39:17;;;;;;;0.50;0.50;;;;;;;;;;4954692;28;20183;-65
2021/12/16 02:41:44;;;;;;;0.50;0.50;;;;;;;;;;4953786;28;20207;-65
2021/12/16 02:44:19;;;;;;;0.50;0.50;;;;;;;;;;4954754;28;20643;-65
2021/12/16 02:49:32;;;;;;;0.50;0.50;;;;;;;;;;4952533;28;20189;-65
2021/12/16 02:51:58;;;;;;;0.50;0.50;;;;;;;;;;4953948;28;20210;-65
2021/12/16 02:54:25;;;;;;;0.50;0.50;;;;;;;;;;4954449;28;20182;-65
2021/12/16 02:56:51;;;;;;;0.50;0.50;;;;;;;;;;4954730;28;20543;-65
2021/12/16 02:59:20;;;;;;;0.50;0.50;;;;;;;;;;4961342;28;20210;-65
2021/12/16 03:01:48;;;;;;;0.50;0.50;;;;;;;;;;4969693;28;20470;-65
2021/12/16 03:04:15;;;;;;;0.50;0.50;;;;;;;;;;4973481;28;20177;-64
2021/12/16 03:06:43;;;;;;;0.50;0.50;;;;;;;;;;4973414;28;20178;-65
2021/12/16 03:09:10;;;;;;;0.50;0.50;;;;;;;;;;4972237;28;20574;-64
2021/12/16 03:11:57;;;;;;;0.50;0.50;;;;;;;;;;4972938;28;20605;-65
2021/12/16 03:14:33;;;;;;;0.50;0.50;;;;;;;;;;4973408;28;20177;-65
2021/12/16 03:17:12;;;;;;;0.50;0.50;;;;;;;;;;4973434;28;20199;-66
2021/12/16 03:22:05;;;;;;;0.60;0.60;;;;;;;;;;4972647;28;20304;-66
2021/12/16 03:32:24;;;;;;;0.50;0.50;;;;;;;;;;4972592;28;20234;-66
2021/12/16 03:35:13;;;;;;;0.50;0.50;;;;;;;;;;4973099;28;20221;-65
2021/12/16 03:37:39;;;;;;;0.50;0.50;;;;;;;;;;4973176;28;20174;-65
2021/12/16 03:40:08;;;;;;;0.50;0.50;;;;;;;;;;4972514;28;20261;-65
2021/12/16 03:42:35;;;;;;;0.50;0.50;;;;;;;;;;4973094;28;20720;-66
2021/12/16 03:46:25;;;;;;;0.50;0.50;;;;;;;;;;4973080;28;20174;-66
2021/12/16 03:47:58;;;;;;;0.50;0.50;;;;;;;;;;4972744;28;20669;-66
2021/12/16 03:50:25;;;;;;;0.57;0.57;;;;;;;;;;4972231;28;20189;-65
2021/12/16 03:52:51;;;;;;;0.50;0.50;;;;;;;;;;4972907;28;20196;-66
2021/12/16 03:55:18;;;;;;;0.50;0.50;;;;;;;;;;4972852;28;20258;-65
2021/12/16 03:57:44;;;;;;;0.50;0.50;;;;;;;;;;4971532;28;20182;-66
2021/12/16 04:00:43;;;;;;;0.50;0.50;;;;;;;;;;4972366;28;20209;-65
2021/12/16 04:03:09;;;;;;;0.50;0.50;;;;;;;;;;4987829;22;20230;-65
2021/12/16 04:05:36;;;;;;;0.50;0.50;;;;;;;;;;4994604;28;20675;-65
2021/12/16 04:08:02;;;;;;;0.50;0.50;;;;;;;;;;4995946;28;20179;-65
2021/12/16 04:10:34;;;;;;;0.50;0.50;;;;;;;;;;4994980;28;20180;-65
2021/12/16 04:13:02;;;;;;;0.50;0.50;;;;;;;;;;4995133;28;20195;-65
2021/12/16 04:15:28;;;;;;;0.50;0.50;;;;;;;;;;4995202;28;20176;-65
2021/12/16 04:17:54;;;;;;;0.40;0.40;;;;;;;;;;4995869;28;20257;-65
2021/12/16 04:20:21;;;;;;;0.50;0.50;;;;;;;;;;4993753;28;20272;-65
2021/12/16 04:22:47;;;;;;;0.50;0.50;;;;;;;;;;4995550;28;20206;-65
2021/12/16 04:25:16;;;;;;;0.50;0.50;;;;;;;;;;4995707;28;20259;-65
2021/12/16 04:27:43;;;;;;;0.50;0.50;;;;;;;;;;4995683;28;20183;-65
2021/12/16 04:30:11;;;;;;;0.40;0.40;;;;;;;;;;4995065;28;20225;-64
2021/12/16 04:32:37;;;;;;;0.50;0.50;;;;;;;;;;4995568;28;20710;-65
2021/12/16 04:35:03;;;;;;;0.40;0.40;;;;;;;;;;4994159;28;20182;-65
2021/12/16 04:37:30;;;;;;;0.50;0.50;;;;;;;;;;4995447;28;20171;-65
2021/12/16 04:39:58;;;;;;;0.50;0.50;;;;;;;;;;4995311;28;20205;-65
2021/12/16 04:42:25;;;;;;;0.60;0.60;;;;;;;;;;4994759;28;20189;-64
2021/12/16 04:44:52;;;;;;;0.50;0.50;;;;;;;;;;4995262;28;20269;-65
2021/12/16 04:47:18;;;;;;;0.50;0.50;;;;;;;;;;4995274;28;20173;-65
2021/12/16 04:49:44;;;;;;;0.50;0.50;;;;;;;;;;4995266;28;20196;-65
2021/12/16 04:52:14;;;;;;;0.52;0.52;;;;;;;;;;4994423;28;21001;-65
2021/12/16 04:54:40;;;;;;;0.50;0.50;;;;;;;;;;4995077;28;20177;-65
2021/12/16 04:57:06;;;;;;;0.50;0.50;;;;;;;;;;4995299;28;20191;-65
2021/12/16 04:59:33;;;;;;;0.50;0.50;;;;;;;;;;4995100;28;20188;-65
2021/12/16 05:02:03;;;;;;;0.50;0.50;;;;;;;;;;4994134;28;20282;-65
2021/12/16 05:04:29;;;;;;;0.50;0.50;;;;;;;;;;4994838;28;20179;-65
2021/12/16 05:06:55;;;;;;;0.50;0.50;;;;;;;;;;4993621;28;20183;-65
2021/12/16 05:09:59;;;;;;;0.50;0.50;;;;;;;;;;4994953;28;20783;-65
2021/12/16 05:12:12;;;;;;;0.50;0.50;;;;;;;;;;4993894;28;20216;-65
2021/12/16 05:14:38;;;;;;;0.50;0.50;;;;;;;;;;4994407;28;20173;-64
2021/12/16 05:17:22;;;;;;;0.50;0.50;;;;;;;;;;4993052;28;20224;-65
2021/12/16 05:19:50;;;;;;;0.60;0.60;;;;;;;;;;4994661;28;20176;-65
2021/12/16 05:25:05;;;;;;;0.50;0.50;;;;;;;;;;4993248;28;20200;-65
2021/12/16 05:27:31;;;;;;;0.50;0.50;;;;;;;;;;4994053;28;20187;-64
2021/12/16 05:29:57;;;;;;;0.50;0.50;;;;;;;;;;4994430;28;20173;-65
2021/12/16 05:32:23;;;;;;;0.50;0.50;;;;;;;;;;4993636;28;20432;-65
2021/12/16 05:34:49;;;;;;;0.50;0.50;;;;;;;;;;4993881;28;20190;-65
2021/12/16 05:37:15;;;;;;;0.57;0.57;;;;;;;;;;4994049;28;20276;-65
2021/12/16 05:39:42;;;;;;;0.60;0.60;;;;;;;;;;4993975;28;20186;-64
2021/12/16 05:42:08;;;;;;;0.40;0.40;;;;;;;;;;4992239;28;20274;-65
2021/12/16 05:44:34;;;;;;;0.50;0.50;;;;;;;;;;4977138;28;20182;-65
2021/12/16 05:47:00;;;;;;;0.50;0.50;;;;;;;;;;4993666;28;20180;-65
2021/12/16 05:49:26;;;;;;;0.50;0.50;;;;;;;;;;4994053;28;20530;-65
2021/12/16 05:51:52;;;;;;;0.50;0.50;;;;;;;;;;4991919;28;20429;-65
2021/12/16 05:54:19;;;;;;;0.40;0.40;;;;;;;;;;4983934;28;20547;-65
2021/12/16 05:56:46;;;;;;;0.50;0.50;;;;;;;;;;4989606;28;20189;-64
2021/12/16 05:59:13;;;;;;;0.40;0.40;;;;;;;;;;4993394;28;20209;-65
2021/12/16 06:01:40;;;;;;;0.50;0.50;;;;;;;;;;4991533;28;20208;-65
2021/12/16 06:04:06;;;;;;;0.50;0.50;;;;;;;;;;4992784;28;20251;-64
2021/12/16 06:06:32;;;;;;;0.50;0.50;;;;;;;;;;4993691;28;20179;-65
2021/12/16 06:08:59;;;;;;;0.50;0.50;;;;;;;;;;4992124;28;20625;-65
2021/12/16 06:11:29;;;;;;;0.50;0.50;;;;;;;;;;4993032;28;20205;-65
2021/12/16 06:27:33;;;;;;;0.50;0.50;;;;;;;;;;4993398;28;20323;-65
2021/12/16 06:29:59;;;;;;;0.60;0.60;;;;;;;;;;4992639;28;20177;-65
2021/12/16 06:32:26;;;;;;;0.50;0.50;;;;;;;;;;4991953;28;20197;-65
2021/12/16 06:34:52;;;;;;;0.50;0.50;;;;;;;;;;4993009;28;20631;-65
2021/12/16 06:37:18;;;;;;;0.50;0.50;;;;;;;;;;4981656;28;20224;-65
2021/12/16 06:39:44;;;;;;;0.50;0.50;;;;;;;;;;4973747;28;20170;-65
2021/12/16 06:42:11;;;;;;;0.50;0.50;;;;;;;;;;4991384;28;20487;-65
2021/12/16 06:44:43;;;;;;;0.50;0.50;;;;;;;;;;4992499;28;20219;-65
2021/12/16 06:47:16;;;;;;;0.50;0.50;;;;;;;;;;4992446;28;20270;-65
2021/12/16 06:49:45;;;;;;;0.50;0.50;;;;;;;;;;4992587;28;20256;-65
2021/12/16 06:52:14;;;;;;;0.40;0.40;;;;;;;;;;4991620;28;20230;-65
2021/12/16 06:55:29;;;;;;;0.40;0.40;;;;;;;;;;4991366;28;20635;-65
2021/12/16 07:00:12;;;;;;;0.40;0.40;;;;;;;;;;4992483;28;20185;-65
2021/12/16 07:05:09;;;;;;;0.40;0.40;;;;;;;;;;4992302;28;20189;-64
2021/12/16 07:07:35;;;;;;;0.40;0.40;;;;;;;;;;4992350;28;20714;-64
2021/12/16 07:10:02;;;;;;;0.50;0.50;;;;;;;;;;4992657;28;20177;-65
2021/12/16 07:12:36;;;;;;;0.50;0.50;;;;;;;;;;4990780;28;20481;-64
2021/12/16 07:15:05;;;;;;;0.50;0.50;;;;;;;;;;4992178;28;20185;-64
2021/12/16 07:17:31;;;;;;;0.50;0.50;;;;;;;;;;4991840;28;20208;-64
2021/12/16 07:19:57;;;;;;;0.50;0.50;;;;;;;;;;4992436;28;20168;-64
2021/12/16 07:22:23;;;;;;;0.50;0.50;;;;;;;;;;4991345;28;20445;-65
2021/12/16 07:24:49;;;;;;;0.50;0.50;;;;;;;;;;4989587;28;20993;-64
2021/12/16 07:27:15;;;;;;;0.40;0.40;;;;;;;;;;4990501;28;20476;-64
2021/12/16 07:29:41;;;;;;;0.50;0.50;;;;;;;;;;4985753;28;20418;-64
2021/12/16 07:32:07;;;;;;;0.43;0.43;;;;;;;;;;4970189;28;20478;-64
2021/12/16 07:34:33;;;;;;;0.50;0.50;;;;;;;;;;4988480;28;20538;-64
2021/12/16 07:37:01;;;;;;;0.40;0.40;;;;;;;;;;4991284;28;20189;-64
2021/12/16 07:39:37;;;;;;;0.50;0.50;;;;;;;;;;4991991;28;20600;-65
2021/12/16 07:42:04;;;;;;;0.40;0.40;;;;;;;;;;4991245;28;20620;-64
2021/12/16 07:44:31;;;;;;;0.40;0.40;;;;;;;;;;4992046;28;20169;-64
2021/12/16 07:47:01;;;;;;;0.50;0.50;;;;;;;;;;4992032;28;20178;-66
2021/12/16 07:49:29;;;;;;;0.43;0.43;;;;;;;;;;4992335;28;20173;-65
2021/12/16 07:51:56;;;;;;;0.50;0.50;;;;;;;;;;4990922;28;20769;-64
2021/12/16 07:54:22;;;;;;;0.43;0.43;;;;;;;;;;4991772;28;20192;-65
2021/12/16 07:56:49;;;;;;;0.47;0.47;;;;;;;;;;4991998;28;20180;-65
2021/12/16 07:59:15;;;;;;;0.40;0.40;;;;;;;;;;4989862;28;20188;-65
2021/12/16 08:01:42;;;;;;;0.50;0.50;;;;;;;;;;4990765;28;20200;-65
2021/12/16 08:04:17;;;;;;;0.43;0.43;;;;;;;;;;4991689;28;20678;-65
2021/12/16 08:06:44;;;;;;;0.40;0.40;;;;;;;;;;4992157;28;20184;-65
2021/12/16 08:09:10;;;;;;;0.40;0.40;;;;;;;;;;4991966;28;20174;-65
2021/12/16 08:11:37;;;;;;;0.40;0.40;;;;;;;;;;4990947;28;20320;-65
2021/12/16 08:14:04;;;;;;;0.40;0.40;;;;;;;;;;4991821;28;20514;-65
2021/12/16 08:16:30;;;;;;;0.40;0.40;;;;;;;;;;4991836;28;20231;-65
2021/12/16 08:18:56;;;;;;;0.47;0.47;;;;;;;;;;4991931;28;20177;-65
2021/12/16 08:21:29;;;;;;;0.40;0.40;;;;;;;;;;4991066;28;20693;-65
2021/12/16 08:23:55;;;;;;;0.40;0.40;;;;;;;;;;4991459;28;20430;-65
2021/12/16 08:26:21;;;;;;;0.40;0.40;;;;;;;;;;4991895;28;20548;-65
2021/12/16 08:28:48;;;;;;;0.50;0.50;;;;;;;;;;4991761;28;20180;-65
2021/12/16 08:31:14;;;;;;;0.50;0.50;;;;;;;;;;4990980;28;20416;-65
2021/12/16 08:33:40;;;;;;;0.50;0.50;;;;;;;;;;4991646;28;20283;-65
2021/12/16 08:36:07;;;;;;;0.50;0.50;;;;;;;;;;4991470;28;20545;-65
2021/12/16 08:38:35;;;;;;;0.55;0.55;;;;;;;;;;4991656;28;20211;-65
2021/12/16 08:41:05;;;;;;;0.50;0.50;;;;;;;;;;4990281;28;20222;-65
2021/12/16 08:43:32;;;;;;;0.50;0.50;;;;;;;;;;4990445;28;20293;-65
2021/12/16 08:45:58;;;;;;;0.60;0.60;;;;;;;;;;4991985;28;20174;-65
2021/12/16 08:48:26;;;;;;;0.50;0.50;;;;;;;;;;4992973;28;20174;-65
2021/12/16 08:50:53;;;;;;;0.50;0.50;;;;;;;;;;4994677;28;20196;-65
2021/12/16 08:53:20;;;;;;;0.50;0.50;;;;;;;;;;4995325;28;20204;-65
2021/12/16 08:55:46;;;;;;;0.50;0.50;;;;;;;;;;4995645;28;20217;-65
2021/12/16 08:58:12;;;;;;;0.50;0.50;;;;;;;;;;4995370;28;20189;-65
2021/12/16 09:00:41;;;;;;;0.50;0.50;;;;;;;;;;4994250;28;20248;-65
2021/12/16 09:03:07;;;;;;;0.50;0.50;;;;;;;;;;4995111;28;20735;-65
2021/12/16 09:05:33;;;;;;;0.50;0.50;;;;;;;;;;4995012;28;20257;-65
2021/12/16 09:07:59;;;;;;;0.50;0.50;;;;;;;;;;4994255;28;20196;-65
2021/12/16 09:10:28;;;;;;;0.50;0.50;;;;;;;;;;4994442;28;20212;-65
2021/12/16 09:13:02;;;;;;;0.50;0.50;;;;;;;;;;4994037;28;20576;-65
2021/12/16 09:15:30;;;;;;;0.50;0.50;;;;;;;;;;4994347;28;20268;-65
2021/12/16 09:17:56;;;;;;;0.50;0.50;;;;;;;;;;4994478;28;20189;-65
2021/12/16 09:20:22;;;;;;;0.50;0.50;;;;;;;;;;4993707;28;20567;-65
2021/12/16 09:22:48;;;;;;;0.50;0.50;;;;;;;;;;4994237;28;20273;-66
2021/12/16 09:25:15;;;;;;;0.50;0.50;;;;;;;;;;4994478;28;20245;-65
2021/12/16 09:27:41;;;;;;;0.40;0.40;;;;;;;;;;4994455;28;20276;-65
2021/12/16 09:30:09;;;;;;;0.50;0.50;;;;;;;;;;4993977;28;20249;-65
2021/12/16 09:32:35;;;;;;;0.40;0.40;;;;;;;;;;4994276;28;20219;-66
2021/12/16 09:35:01;;;;;;;0.47;0.47;;;;;;;;;;4994253;28;20173;-66
2021/12/16 09:37:28;;;;;;;0.40;0.40;;;;;;;;;;4994328;28;20178;-66
2021/12/16 09:39:55;;;;;;;0.40;0.40;;;;;;;;;;4994094;28;20178;-65
2021/12/16 09:42:21;;;;;;;0.45;0.45;;;;;;;;;;4993368;28;20228;-66
2021/12/16 09:44:47;;;;;;;0.50;0.50;;;;;;;;;;4994113;28;20174;-66
2021/12/16 09:47:14;;;;;;;0.50;0.50;;;;;;;;;;4994192;28;20268;-66
2021/12/16 09:49:40;;;;;;;0.50;0.50;;;;;;;;;;4994068;28;20427;-66
2021/12/16 09:52:07;;;;;;;0.40;0.40;;;;;;;;;;4993330;28;20209;-65
2021/12/16 09:54:34;;;;;;;0.40;0.40;;;;;;;;;;4993938;28;20181;-65
2021/12/16 09:57:00;;;;;;;0.40;0.40;;;;;;;;;;4994097;28;20182;-66
2021/12/16 09:59:27;;;;;;;0.50;0.50;;;;;;;;;;4994075;28;20181;-66
2021/12/16 10:01:56;;;;;;;0.50;0.50;;;;;;;;;;4993051;28;20275;-65
2021/12/16 10:04:27;;;;;;;0.50;0.50;;;;;;;;;;5007503;23;20230;-66
2021/12/16 10:06:56;;;;;;;0.50;0.50;;;;;;;;;;4993894;28;20635;-67
2021/12/16 10:09:23;;;;;;;0.50;0.50;;;;;;;;;;4993942;28;20546;-67
2021/12/16 10:11:50;;;;;;;0.50;0.50;;;;;;;;;;4993501;28;20562;-67
2021/12/16 10:14:31;;;;;;;0.43;0.43;;;;;;;;;;5009676;28;20201;-67
2021/12/16 10:19:43;;;;;;;0.50;0.50;;;;;;;;;;5013854;28;20183;-64
2021/12/16 10:22:16;;;;;;;0.50;0.50;;;;;;;;;;5012637;28;20217;-68
2021/12/16 10:24:42;;;;;;;0.40;0.40;;;;;;;;;;5013253;28;20194;-67
2021/12/16 10:27:13;;;;;;;0.40;0.40;;;;;;;;;;5013229;28;20356;-66
2021/12/16 10:29:40;;;;;;;0.50;0.50;;;;;;;;;;5013105;28;20405;-67
2021/12/16 10:32:26;;;;;;;0.50;0.50;;;;;;;;;;5012512;28;20181;-66
2021/12/16 10:34:59;;;;;;;0.40;0.40;;;;;;;;;;5012828;28;20181;-65
2021/12/16 10:37:32;;;;;;;0.40;0.40;;;;;;;;;;5011668;28;20206;-65
2021/12/16 10:40:16;;;;;;;0.40;0.40;;;;;;;;;;5013753;28;20680;-66
2021/12/16 10:42:48;;;;;;;0.50;0.50;;;;;;;;;;5013280;28;20626;-66
2021/12/16 10:45:27;;;;;;;0.40;0.40;;;;;;;;;;5012938;28;20181;-67
2021/12/16 10:48:13;;;;;;;0.50;0.50;;;;;;;;;;5013060;28;20180;-66
2021/12/16 10:51:06;;;;;;;0.50;0.50;;;;;;;;;;5012013;28;20184;-66
2021/12/16 10:53:50;;;;;;;0.40;0.40;;;;;;;;;;5012409;28;20204;-65
2021/12/16 10:56:17;;;;;;;0.50;0.50;;;;;;;;;;5013167;28;20177;-66
2021/12/16 10:58:48;;;;;;;0.40;0.40;;;;;;;;;;5012597;28;20181;-67
2021/12/16 11:01:53;;;;;;;0.50;0.50;;;;;;;;;;5009785;28;20204;-66
2021/12/16 11:04:19;;;;;;;0.50;0.50;;;;;;;;;;4971049;28;20256;-65
2021/12/16 11:06:54;;;;;;;0.40;0.40;;;;;;;;;;4955186;28;20239;-67
2021/12/16 11:09:22;;;;;;;0.50;0.50;;;;;;;;;;4982683;28;20198;-66
2021/12/16 11:11:49;;;;;;;0.40;0.40;;;;;;;;;;4991743;28;20182;-67
2021/12/16 11:14:22;;;;;;;0.40;0.40;;;;;;;;;;4992670;28;20275;-67
2021/12/16 11:16:56;;;;;;;0.40;0.40;;;;;;;;;;4992913;28;20175;-66
2021/12/16 11:19:40;;;;;;;0.50;0.50;;;;;;;;;;4991778;28;20558;-66
2021/12/16 11:22:07;;;;;;;0.40;0.40;;;;;;;;;;4991852;28;20208;-66
2021/12/16 11:24:33;;;;;;;0.50;0.50;;;;;;;;;;4992563;28;20566;-66
2021/12/16 11:26:59;;;;;;;0.50;0.50;;;;;;;;;;4992274;28;20171;-67
2021/12/16 11:29:32;;;;;;;0.50;0.50;;;;;;;;;;4992716;28;20405;-65
2021/12/16 11:31:58;;;;;;;0.40;0.40;;;;;;;;;;4991772;28;20448;-67
2021/12/16 11:34:24;;;;;;;0.40;0.40;;;;;;;;;;4992287;28;20190;-66
2021/12/16 11:36:54;;;;;;;0.40;0.40;;;;;;;;;;4992508;28;20177;-65
2021/12/16 11:39:22;;;;;;;0.40;0.40;;;;;;;;;;4992436;28;20604;-66
2021/12/16 11:41:50;;;;;;;0.50;0.50;;;;;;;;;;4991834;28;20202;-65
2021/12/16 11:44:19;;;;;;;0.50;0.50;;;;;;;;;;4992366;28;20198;-66
2021/12/16 11:47:02;;;;;;;0.40;0.40;;;;;;;;;;4991343;28;20179;-65
2021/12/16 11:49:33;;;;;;;0.50;0.50;;;;;;;;;;4992412;28;20596;-65
2021/12/16 11:52:02;;;;;;;0.50;0.50;;;;;;;;;;4991708;28;20185;-66
2021/12/16 11:54:28;;;;;;;0.50;0.50;;;;;;;;;;4991959;28;20272;-66
2021/12/16 11:57:06;;;;;;;0.50;0.50;;;;;;;;;;4991435;28;20190;-65
2021/12/16 11:59:36;;;;;;;0.50;0.50;;;;;;;;;;4992326;28;20773;-66
2021/12/16 12:02:03;;;;;;;0.40;0.40;;;;;;;;;;4992108;28;20194;-67
2021/12/16 12:04:34;;;;;;;0.45;0.45;;;;;;;;;;4992309;28;20212;-66
2021/12/16 12:06:59;;;;;;;0.40;0.40;;;;;;;;;;4992538;28;20171;-67
2021/12/16 12:09:37;;;;;;;0.40;0.40;;;;;;;;;;4992612;28;20166;-66
2021/12/16 12:12:03;;;;;;;0.40;0.40;;;;;;;;;;4991884;28;20448;-66
2021/12/16 12:14:34;;;;;;;0.50;0.50;;;;;;;;;;4992288;28;20206;-67
2021/12/16 12:17:08;;;;;;;0.50;0.50;;;;;;;;;;4992465;28;20198;-67
2021/12/16 12:19:40;;;;;;;0.50;0.50;;;;;;;;;;4992283;28;20177;-68
2021/12/16 12:22:06;;;;;;;0.50;0.50;;;;;;;;;;5009696;28;20216;-66
2021/12/16 12:24:37;;;;;;;0.47;0.47;;;;;;;;;;5015277;28;20194;-66
2021/12/16 12:27:09;;;;;;;0.50;0.50;;;;;;;;;;5015838;28;20926;-66
2021/12/16 12:29:36;;;;;;;0.40;0.40;;;;;;;;;;5015704;28;20169;-66
2021/12/16 12:32:14;;;;;;;0.50;0.50;;;;;;;;;;5015075;28;20181;-67
2021/12/16 12:34:42;;;;;;;0.50;0.50;;;;;;;;;;5015500;28;20208;-67
2021/12/16 12:37:10;;;;;;;0.40;0.40;;;;;;;;;;5015536;28;20173;-67
2021/12/16 12:39:42;;;;;;;0.40;0.40;;;;;;;;;;5015748;28;20184;-66
2021/12/16 12:42:08;;;;;;;0.50;0.50;;;;;;;;;;5015064;28;20292;-67
2021/12/16 12:44:34;;;;;;;0.40;0.40;;;;;;;;;;5015291;28;20362;-65
2021/12/16 12:47:01;;;;;;;0.50;0.50;;;;;;;;;;5015700;28;20170;-66
2021/12/16 12:49:29;;;;;;;0.40;0.40;;;;;;;;;;5015284;28;20249;-66
2021/12/16 12:52:03;;;;;;;0.50;0.50;;;;;;;;;;5014746;28;20612;-66
2021/12/16 12:54:30;;;;;;;0.50;0.50;;;;;;;;;;5015009;28;20584;-66
2021/12/16 12:56:57;;;;;;;0.60;0.60;;;;;;;;;;5015610;28;20181;-66
2021/12/16 12:59:33;;;;;;;0.50;0.50;;;;;;;;;;5014277;28;20181;-68
2021/12/16 13:01:58;;;;;;;0.40;0.40;;;;;;;;;;5015362;28;20255;-67
2021/12/16 13:04:42;;;;;;;0.50;0.50;;;;;;;;;;5028790;28;20235;-67
2021/12/16 13:07:12;;;;;;;0.50;0.50;;;;;;;;;;5035064;28;20408;-65
2021/12/16 13:09:41;;;;;;;0.40;0.40;;;;;;;;;;5035119;28;20169;-65
2021/12/16 13:12:28;;;;;;;0.40;0.40;;;;;;;;;;5034329;28;20175;-65
2021/12/16 13:15:03;;;;;;;0.50;0.50;;;;;;;;;;5033780;28;20208;-68
2021/12/16 13:23:29;;;;;;;0.50;0.50;;;;;;;;;;5034503;28;20203;-66
2021/12/16 13:26:20;;;;;;;0.40;0.40;;;;;;;;;;5034354;28;20172;-67
2021/12/16 13:29:14;;;;;;;0.50;0.50;;;;;;;;;;5034561;28;20181;-65
2021/12/16 13:32:03;;;;;;;0.60;0.60;;;;;;;;;;5033902;28;20263;-66
2021/12/16 13:34:41;;;;;;;0.40;0.40;;;;;;;;;;5033971;28;20790;-66
2021/12/16 13:37:20;;;;;;;0.50;0.50;;;;;;;;;;5034259;28;20185;-66
2021/12/16 13:39:47;;;;;;;0.40;0.40;;;;;;;;;;5034080;28;20176;-67
2021/12/16 13:42:15;;;;;;;0.40;0.40;;;;;;;;;;5033656;28;20203;-67
2021/12/16 13:44:43;;;;;;;0.50;0.50;;;;;;;;;;5033907;28;20537;-67
2021/12/16 13:47:30;;;;;;;0.40;0.40;;;;;;;;;;5033981;28;20536;-67
2021/12/16 14:04:36;;;;;;;0.50;0.50;;;;;;;;;;5024784;28;20208;-65
2021/12/16 14:07:24;;;;;;;0.40;0.40;;;;;;;;;;5033127;28;20191;-67
2021/12/16 14:10:01;;;;;;;0.40;0.40;;;;;;;;;;5033112;28;20190;-67
2021/12/16 14:15:10;;;;;;;0.40;0.40;;;;;;;;;;5033578;28;20264;-67
2021/12/16 14:17:47;;;;;;;0.60;0.60;;;;;;;;;;5033272;28;20176;-67
2021/12/16 14:23:12;;;;;;;0.50;0.50;;;;;;;;;;5033401;28;20235;-66
2021/12/16 14:25:53;;;;;;;0.50;0.50;;;;;;;;;;5033012;28;20169;-68
2021/12/16 14:34:52;;;;;;;0.50;0.50;;;;;;;;;;4994125;28;20613;-67
2021/12/16 14:42:07;;;;;;;0.40;0.40;;;;;;;;;;4993585;28;20214;-66
2021/12/16 14:50:24;;;;;;;0.40;0.40;;;;;;;;;;5012511;28;20180;-68
2021/12/16 14:52:50;;;;;;;0.50;0.50;;;;;;;;;;5013155;28;20200;-65
2021/12/16 14:55:18;;;;;;;0.50;0.50;;;;;;;;;;5012528;28;20183;-67
2021/12/16 14:57:47;;;;;;;0.45;0.45;;;;;;;;;;5013067;28;20199;-67
2021/12/16 15:00:13;;;;;;;0.40;0.40;;;;;;;;;;5011927;28;20224;-58
2021/12/16 15:02:41;;;;;;;0.50;0.50;;;;;;;;;;5020160;28;20665;-67
2021/12/16 15:05:28;;;;;;;0.40;0.40;;;;;;;;;;5031219;28;20655;-66
2021/12/16 15:07:55;;;;;;;0.50;0.50;;;;;;;;;;5032176;28;20291;-66
2021/12/16 15:10:23;;;;;;;0.50;0.50;;;;;;;;;;5031518;28;20203;-66
2021/12/16 15:12:59;;;;;;;0.40;0.40;;;;;;;;;;5032625;28;20676;-68
2021/12/16 15:15:43;;;;;;;0.50;0.50;;;;;;;;;;5032175;28;20183;-65
2021/12/16 15:44:53;;;;;;;0.40;0.40;;;;;;;;;;5032592;28;20178;-65
2021/12/16 15:47:20;;;;;;;0.40;0.40;;;;;;;;;;5031873;28;20176;-66
2021/12/16 15:49:47;;;;;;;0.50;0.50;;;;;;;;;;5018541;28;20231;-67
2021/12/16 15:52:13;;;;;;;0.40;0.40;;;;;;;;;;5011386;28;20192;-65
2021/12/16 15:54:44;;;;;;;0.50;0.50;;;;;;;;;;5011990;28;20203;-66
2021/12/16 15:57:11;;;;;;;0.40;0.40;;;;;;;;;;5013066;28;20430;-66
2021/12/16 15:59:37;;;;;;;0.40;0.40;;;;;;;;;;5016075;28;20263;-66
2021/12/16 16:02:03;;;;;;;0.50;0.50;;;;;;;;;;5015700;28;20276;-65
2021/12/16 16:04:32;;;;;;;0.50;0.50;;;;;;;;;;5021825;23;20869;-64
2021/12/16 16:07:00;;;;;;;0.50;0.50;;;;;;;;;;4995961;28;20613;-64
2021/12/16 16:09:34;;;;;;;0.50;0.50;;;;;;;;;;4995844;28;20698;-65
2021/12/16 16:12:00;;;;;;;0.40;0.40;;;;;;;;;;4995299;28;20608;-64
2021/12/16 16:14:29;;;;;;;0.50;0.50;;;;;;;;;;4995562;28;20285;-64
2021/12/16 16:16:57;;;;;;;0.40;0.40;;;;;;;;;;4995917;28;20776;-65
2021/12/16 16:19:25;;;;;;;0.50;0.50;;;;;;;;;;4995677;28;20257;-65
2021/12/16 16:21:53;;;;;;;0.50;0.50;;;;;;;;;;4986494;28;20707;-66
2021/12/16 16:24:22;;;;;;;0.50;0.50;;;;;;;;;;4976016;28;20228;-65
2021/12/16 16:26:49;;;;;;;0.40;0.40;;;;;;;;;;4976396;28;20182;-64
2021/12/16 16:29:16;;;;;;;0.50;0.50;;;;;;;;;;4976180;28;20182;-65
2021/12/16 16:31:43;;;;;;;0.50;0.50;;;;;;;;;;4975467;28;20182;-65
2021/12/16 16:34:11;;;;;;;0.50;0.50;;;;;;;;;;4975783;28;20201;-65
2021/12/16 16:36:40;;;;;;;0.50;0.50;;;;;;;;;;4976280;28;20672;-64
2021/12/16 16:39:07;;;;;;;0.50;0.50;;;;;;;;;;4975972;28;20269;-64
2021/12/16 16:41:38;;;;;;;0.52;0.52;;;;;;;;;;4975331;28;20213;-64
2021/12/16 16:44:11;;;;;;;0.40;0.40;;;;;;;;;;4975887;28;20197;-64
2021/12/16 16:46:43;;;;;;;0.50;0.50;;;;;;;;;;4976297;28;20174;-65
2021/12/16 16:49:11;;;;;;;0.50;0.50;;;;;;;;;;4975795;28;20529;-64
2021/12/16 16:51:43;;;;;;;0.50;0.50;;;;;;;;;;4974912;28;20193;-64
2021/12/16 16:54:09;;;;;;;0.40;0.40;;;;;;;;;;4974252;28;20204;-64
2021/12/16 16:56:40;;;;;;;0.40;0.40;;;;;;;;;;4975609;28;20545;-64
2021/12/16 16:59:07;;;;;;;0.40;0.40;;;;;;;;;;4975618;28;20464;-64
2021/12/16 17:01:34;;;;;;;0.40;0.40;;;;;;;;;;4974848;28;20210;-65
2021/12/16 17:04:01;;;;;;;0.40;0.40;;;;;;;;;;4975310;28;20265;-64
2021/12/16 17:06:28;;;;;;;0.50;0.50;;;;;;;;;;4975569;28;20233;-64
2021/12/16 17:08:56;;;;;;;0.40;0.40;;;;;;;;;;4974856;28;20265;-64
2021/12/16 17:11:23;;;;;;;0.50;0.50;;;;;;;;;;4974719;28;20190;-64
2021/12/16 17:14:07;;;;;;;0.40;0.40;;;;;;;;;;4975243;28;20189;-64
2021/12/16 17:19:20;;;;;;;0.50;0.50;;;;;;;;;;4975301;28;20225;-64
2021/12/16 17:21:49;;;;;;;0.50;0.50;;;;;;;;;;4974443;28;20212;-65
2021/12/16 17:24:17;;;;;;;0.60;0.60;;;;;;;;;;4974815;28;20197;-64
2021/12/16 17:26:45;;;;;;;0.47;0.47;;;;;;;;;;4975235;28;20173;-64
2021/12/16 17:29:18;;;;;;;0.50;0.50;;;;;;;;;;4975144;28;20181;-64
2021/12/16 17:31:46;;;;;;;0.50;0.50;;;;;;;;;;4973082;28;20185;-64
2021/12/16 17:34:15;;;;;;;0.50;0.50;;;;;;;;;;4974627;28;20685;-64
2021/12/16 17:36:45;;;;;;;0.40;0.40;;;;;;;;;;4974900;28;20236;-64
2021/12/16 17:39:13;;;;;;;0.50;0.50;;;;;;;;;;4973723;28;20228;-64
2021/12/16 17:41:39;;;;;;;0.50;0.50;;;;;;;;;;4974203;28;20247;-64
2021/12/16 17:44:15;;;;;;;0.50;0.50;;;;;;;;;;4974642;28;20197;-64
2021/12/16 17:46:42;;;;;;;0.40;0.40;;;;;;;;;;4974811;28;20166;-64
2021/12/16 17:49:09;;;;;;;0.50;0.50;;;;;;;;;;4974703;28;20209;-64
2021/12/16 17:51:39;;;;;;;0.50;0.50;;;;;;;;;;4974125;28;20185;-64
2021/12/16 17:54:07;;;;;;;0.50;0.50;;;;;;;;;;4974494;28;20200;-64
2021/12/16 17:56:34;;;;;;;0.50;0.50;;;;;;;;;;4973280;28;20181;-64
2021/12/16 17:59:01;;;;;;;0.50;0.50;;;;;;;;;;4972315;28;20208;-64
2021/12/16 18:01:31;;;;;;;0.50;0.50;;;;;;;;;;4973662;28;20202;-64
2021/12/16 18:04:03;;;;;;;0.50;0.50;;;;;;;;;;4974278;28;20882;-64
2021/12/16 18:06:42;;;;;;;0.50;0.50;;;;;;;;;;4974569;28;20176;-64
2021/12/16 18:09:10;;;;;;;0.50;0.50;;;;;;;;;;4973197;28;20167;-64
2021/12/16 18:11:38;;;;;;;0.50;0.50;;;;;;;;;;4973748;28;20253;-65
2021/12/16 18:14:09;;;;;;;0.50;0.50;;;;;;;;;;4974203;28;20216;-65
2021/12/16 18:16:39;;;;;;;0.50;0.50;;;;;;;;;;4973923;28;20183;-65
2021/12/16 18:19:17;;;;;;;0.60;0.60;;;;;;;;;;4974219;28;20250;-65
2021/12/16 18:21:46;;;;;;;0.40;0.40;;;;;;;;;;4971096;28;20254;-65
2021/12/16 18:24:12;;;;;;;0.47;0.47;;;;;;;;;;4973662;28;20190;-65
2021/12/16 18:26:39;;;;;;;0.50;0.50;;;;;;;;;;4973910;28;20553;-65
2021/12/16 18:29:07;;;;;;;0.50;0.50;;;;;;;;;;4973905;28;20405;-65
2021/12/16 18:31:34;;;;;;;0.60;0.60;;;;;;;;;;4973249;28;20258;-65
2021/12/16 18:34:19;;;;;;;0.50;0.50;;;;;;;;;;4972462;28;20300;-65
2021/12/16 18:36:47;;;;;;;0.50;0.50;;;;;;;;;;4973717;28;20218;-65